Time;durP1;ratioP1;P1;durP2;ratioP2;P2;SDS_P1;SDS_P2;PMS_P1;PMS_P2;Temp;Humidity;BMP_temperature;BMP_pressure;BME280_temperature;BME280_humidity;BME280_pressure;Samples;Min_cycle;Max_cycle;Signal;HPM_P1;HPM_P2
2022/03/05 00:00:36;;;;;;;18.57;8.70;;;-1.90;99.90;;;;;;5082486;28;20176;-84
2022/03/05 00:03:03;;;;;;;16.70;8.50;;;-2.10;99.90;;;;;;5098903;28;20441;-86
2022/03/05 00:05:29;;;;;;;18.15;9.80;;;-2.40;99.90;;;;;;5083524;28;20266;-84
2022/03/05 00:07:54;;;;;;;17.52;9.00;;;-2.30;99.90;;;;;;5088700;28;20184;-84
2022/03/05 00:10:21;;;;;;;17.80;10.07;;;-2.30;99.90;;;;;;5099716;28;20294;-85
2022/03/05 00:12:47;;;;;;;26.35;9.68;;;;;;;;;;5079456;28;20178;-84
2022/03/05 00:15:13;;;;;;;23.67;10.20;;;-2.30;99.90;;;;;;5101909;28;20269;-86
2022/03/05 00:17:39;;;;;;;18.80;10.18;;;-2.40;99.90;;;;;;5087419;28;20200;-85
2022/03/05 00:20:06;;;;;;;13.97;9.60;;;-2.40;99.90;;;;;;5097755;28;20183;-84
2022/03/05 00:22:32;;;;;;;20.13;12.10;;;-2.50;99.90;;;;;;5076445;28;20176;-85
2022/03/05 00:24:58;;;;;;;22.73;10.98;;;-2.40;99.90;;;;;;5078872;28;20229;-84
2022/03/05 00:27:23;;;;;;;21.10;10.80;;;-2.50;99.90;;;;;;5078741;28;20505;-82
2022/03/05 00:29:49;;;;;;;27.03;10.33;;;-2.50;99.90;;;;;;5082769;28;20460;-85
2022/03/05 00:32:15;;;;;;;20.02;11.73;;;-2.40;99.90;;;;;;5098431;28;20507;-81
2022/03/05 00:34:40;;;;;;;22.97;10.23;;;-2.40;99.90;;;;;;5080908;28;20342;-84
2022/03/05 00:37:07;;;;;;;18.00;9.23;;;-2.30;99.90;;;;;;5078970;28;20179;-85
2022/03/05 00:39:33;;;;;;;21.10;10.27;;;;;;;;;;5099958;28;20179;-85
2022/03/05 00:41:59;;;;;;;22.00;9.95;;;-2.10;99.90;;;;;;5095739;28;20194;-83
2022/03/05 00:44:25;;;;;;;22.40;10.20;;;-2.20;99.90;;;;;;5067225;28;20207;-80
2022/03/05 00:46:50;;;;;;;20.43;9.77;;;-2.00;99.90;;;;;;5089608;28;20193;-79
2022/03/05 00:49:15;;;;;;;24.80;10.17;;;-2.10;99.90;;;;;;5075519;28;20217;-80
2022/03/05 00:51:41;;;;;;;23.40;10.87;;;-2.30;99.90;;;;;;5096316;28;20187;-80
2022/03/05 00:54:08;;;;;;;24.73;10.90;;;;;;;;;;5079823;28;20215;-81
2022/03/05 00:56:34;;;;;;;25.20;10.02;;;;;;;;;;5078265;28;20440;-78
2022/03/05 00:59:00;;;;;;;17.87;8.87;;;-2.60;99.90;;;;;;5079986;28;20243;-80
2022/03/05 01:01:25;;;;;;;18.97;10.03;;;-2.60;99.90;;;;;;5099833;28;20425;-80
2022/03/05 01:03:51;;;;;;;22.13;9.70;;;;;;;;;;5091505;28;20206;-79
2022/03/05 01:06:17;;;;;;;14.30;8.63;;;-2.60;99.90;;;;;;5079502;28;20271;-84
2022/03/05 01:08:43;;;;;;;21.57;10.40;;;;;;;;;;5079387;28;20421;-85
2022/03/05 01:11:09;;;;;;;26.90;9.40;;;;;;;;;;5101220;28;20183;-84
2022/03/05 01:13:36;;;;;;;15.53;8.73;;;-2.70;99.90;;;;;;5078413;28;20965;-83
2022/03/05 01:16:01;;;;;;;16.83;9.90;;;-2.90;99.90;;;;;;5079213;28;20430;-82
2022/03/05 01:18:27;;;;;;;23.93;10.50;;;-2.70;99.90;;;;;;5078718;28;20179;-83
2022/03/05 01:20:52;;;;;;;18.40;9.00;;;-2.70;99.90;;;;;;5096867;28;20180;-85
2022/03/05 01:23:19;;;;;;;24.27;11.07;;;;;;;;;;5084196;28;20194;-83
2022/03/05 01:25:44;;;;;;;21.25;9.85;;;-2.70;99.90;;;;;;5082373;28;20214;-83
2022/03/05 01:28:15;;;;;;;18.50;8.53;;;-2.80;99.90;;;;;;5071561;28;20176;-83
2022/03/05 01:30:41;;;;;;;20.15;9.88;;;-1.60;99.90;;;;;;5098761;28;20188;-82
2022/03/05 01:33:06;;;;;;;20.37;10.03;;;-2.80;99.90;;;;;;5094436;28;20207;-81
2022/03/05 01:35:32;;;;;;;24.60;9.90;;;-1.90;99.90;;;;;;5091418;28;20578;-80
2022/03/05 01:37:57;;;;;;;19.70;9.70;;;-2.40;99.90;;;;;;5080172;28;20183;-81
2022/03/05 01:40:23;;;;;;;17.00;9.27;;;-2.90;99.90;;;;;;5096171;28;20180;-84
2022/03/05 01:42:49;;;;;;;21.35;9.90;;;-2.80;99.90;;;;;;5097314;28;20227;-80
2022/03/05 01:45:14;;;;;;;29.13;10.73;;;-2.90;99.90;;;;;;5090474;28;20195;-81
2022/03/05 01:47:41;;;;;;;26.40;10.93;;;-2.90;99.90;;;;;;5074106;28;20609;-82
2022/03/05 01:50:08;;;;;;;21.90;10.23;;;-2.80;99.90;;;;;;5089841;28;20648;-83
2022/03/05 01:52:34;;;;;;;21.55;10.20;;;-3.00;99.90;;;;;;5079433;28;20176;-84
2022/03/05 01:54:59;;;;;;;22.27;10.80;;;-2.90;99.90;;;;;;5075731;28;20584;-82
2022/03/05 01:57:25;;;;;;;25.13;10.27;;;-2.90;99.90;;;;;;5078584;28;20174;-81
2022/03/05 01:59:51;;;;;;;19.80;9.03;;;-2.90;99.90;;;;;;5072738;28;20188;-83
2022/03/05 02:02:17;;;;;;;16.52;9.65;;;-2.90;99.90;;;;;;5077009;28;20240;-86
2022/03/05 02:04:43;;;;;;;19.00;9.60;;;-2.90;99.90;;;;;;5076096;28;20192;-82
2022/03/05 02:07:09;;;;;;;21.40;10.27;;;-2.90;99.90;;;;;;5094150;28;20939;-82
2022/03/05 02:09:35;;;;;;;20.55;9.98;;;-2.90;99.90;;;;;;5076365;28;20234;-82
2022/03/05 02:12:01;;;;;;;17.20;8.40;;;-3.00;99.90;;;;;;5080792;28;20187;-83
2022/03/05 02:14:26;;;;;;;19.47;9.80;;;-3.00;99.90;;;;;;5079161;28;20280;-83
2022/03/05 02:16:52;;;;;;;15.83;8.17;;;-2.90;99.90;;;;;;5073651;28;20638;-84
2022/03/05 02:19:18;;;;;;;21.90;9.80;;;;;;;;;;5104329;28;20175;-84
2022/03/05 02:21:47;;;;;;;16.50;8.95;;;-3.10;99.90;;;;;;5081850;28;20188;-84
2022/03/05 02:24:31;;;;;;;19.27;10.13;;;-2.80;99.90;;;;;;5081491;28;20215;-86
2022/03/05 02:27:00;;;;;;;19.17;9.82;;;-3.10;99.90;;;;;;5081479;28;20705;-84
2022/03/05 02:29:26;;;;;;;15.73;8.20;;;-3.20;99.90;;;;;;5099725;28;20180;-83
2022/03/05 02:31:54;;;;;;;19.90;9.73;;;-3.40;99.90;;;;;;5080659;28;20240;-82
2022/03/05 02:34:20;;;;;;;20.60;9.20;;;;;;;;;;5081372;28;20294;-85
2022/03/05 02:36:46;;;;;;;23.08;9.98;;;-3.40;99.90;;;;;;5080950;28;20175;-82
2022/03/05 02:39:11;;;;;;;19.53;9.50;;;-3.40;99.90;;;;;;5079718;28;20172;-85
2022/03/05 02:41:37;;;;;;;18.20;9.50;;;-3.40;99.90;;;;;;5103902;28;20187;-83
2022/03/05 02:44:03;;;;;;;22.67;10.83;;;-3.50;99.90;;;;;;5089942;28;20206;-84
2022/03/05 02:46:29;;;;;;;17.20;8.73;;;;;;;;;;5087410;28;20270;-85
2022/03/05 02:48:56;;;;;;;20.85;10.13;;;-3.50;99.90;;;;;;5103357;28;20690;-83
2022/03/05 02:51:22;;;;;;;20.08;10.50;;;-3.50;99.90;;;;;;5084280;28;20672;-85
2022/03/05 02:53:48;;;;;;;21.45;8.48;;;-3.40;99.90;;;;;;5085544;28;20200;-87
2022/03/05 02:56:13;;;;;;;18.80;10.32;;;-3.40;99.90;;;;;;5084538;28;20183;-84
2022/03/05 02:58:39;;;;;;;26.20;10.07;;;;;;;;;;5084321;28;20192;-86
2022/03/05 03:01:05;;;;;;;18.13;9.25;;;-3.50;99.90;;;;;;5082721;28;20218;-81
2022/03/05 03:03:31;;;;;;;20.43;10.47;;;-3.50;99.90;;;;;;5082571;28;20215;-83
2022/03/05 03:05:56;;;;;;;27.97;12.10;;;-3.60;99.90;;;;;;5082237;28;20491;-84
2022/03/05 03:08:22;;;;;;;17.43;8.70;;;-3.60;99.90;;;;;;5076964;28;20620;-85
2022/03/05 03:10:48;;;;;;;17.97;9.93;;;;;;;;;;5081790;28;20168;-83
2022/03/05 03:13:13;;;;;;;21.58;8.57;;;-3.50;99.90;;;;;;5081793;28;20203;-87
2022/03/05 03:15:39;;;;;;;19.00;8.87;;;-3.40;99.90;;;;;;5082249;28;20195;-85
2022/03/05 03:18:05;;;;;;;18.27;9.63;;;;;;;;;;5082870;28;20190;-85
2022/03/05 03:20:31;;;;;;;21.17;9.30;;;-3.60;99.90;;;;;;5083213;28;20168;-85
2022/03/05 03:22:57;;;;;;;20.10;8.70;;;;;;;;;;5081935;28;20172;-85
2022/03/05 03:25:23;;;;;;;18.70;8.87;;;-3.60;99.90;;;;;;5101114;28;20211;-85
2022/03/05 03:27:49;;;;;;;17.17;9.27;;;-3.70;99.90;;;;;;5100385;28;20414;-85
2022/03/05 03:30:16;;;;;;;27.42;9.88;;;-3.60;99.90;;;;;;5082130;28;20203;-84
2022/03/05 03:32:43;;;;;;;20.95;10.13;;;-3.60;99.90;;;;;;5082630;28;20175;-84
2022/03/05 03:35:09;;;;;;;24.52;9.98;;;;;;;;;;5078810;28;20208;-86
2022/03/05 03:37:35;;;;;;;18.73;9.77;;;-3.70;99.90;;;;;;5083951;28;20183;-85
2022/03/05 03:40:04;;;;;;;17.45;9.13;;;-3.70;99.90;;;;;;5080617;28;20644;-85
2022/03/05 03:42:30;;;;;;;25.08;11.02;;;;;;;;;;5080284;28;20187;-85
2022/03/05 03:44:56;;;;;;;27.47;10.50;;;;;;;;;;5078337;28;20290;-84
2022/03/05 03:47:23;;;;;;;20.05;10.45;;;-3.80;99.90;;;;;;5086530;28;20424;-87
2022/03/05 03:49:49;;;;;;;19.23;9.55;;;;;;;;;;5083233;28;20205;-85
2022/03/05 03:52:15;;;;;;;24.10;10.95;;;;;;;;;;5082611;28;20186;-86
2022/03/05 03:54:42;;;;;;;23.50;9.85;;;-3.70;99.90;;;;;;5102420;28;20200;-85
2022/03/05 03:57:08;;;;;;;17.67;9.98;;;;;;;;;;5084986;28;20171;-85
2022/03/05 03:59:34;;;;;;;21.15;9.80;;;;;;;;;;5083001;28;20270;-87
2022/03/05 04:02:02;;;;;;;23.53;10.30;;;;;;;;;;5085907;28;20298;-87
2022/03/05 04:04:28;;;;;;;18.23;9.57;;;-3.90;99.90;;;;;;5079435;28;20983;-86
2022/03/05 04:09:37;;;;;;;18.80;9.57;;;-3.70;99.90;;;;;;5098341;28;20214;-86
2022/03/05 04:12:03;;;;;;;27.17;10.37;;;-3.90;99.90;;;;;;5100959;28;20539;-85
2022/03/05 04:14:29;;;;;;;24.13;10.13;;;-3.90;99.90;;;;;;5105356;28;20203;-86
2022/03/05 04:16:54;;;;;;;19.57;9.13;;;-3.90;99.90;;;;;;5084951;28;20164;-85
2022/03/05 04:19:21;;;;;;;17.83;9.20;;;-3.90;99.90;;;;;;5079296;28;20172;-84
2022/03/05 04:21:47;;;;;;;17.98;9.70;;;;;;;;;;5100728;28;20186;-84
2022/03/05 04:24:13;;;;;;;20.70;10.52;;;-4.00;99.90;;;;;;5092177;28;20268;-84
2022/03/05 04:26:38;;;;;;;14.60;8.77;;;-4.10;99.90;;;;;;5084953;28;20180;-82
2022/03/05 04:29:04;;;;;;;18.53;10.17;;;-4.20;99.90;;;;;;5107728;28;20199;-84
2022/03/05 04:31:30;;;;;;;25.60;10.03;;;-3.90;99.90;;;;;;5110090;28;20179;-85
2022/03/05 04:33:56;;;;;;;20.07;9.80;;;-4.00;99.90;;;;;;5101022;28;20527;-84
2022/03/05 04:36:21;;;;;;;24.27;10.70;;;-4.00;99.90;;;;;;5103986;28;20418;-86
2022/03/05 04:38:48;;;;;;;19.93;10.03;;;;;;;;;;5081172;28;20425;-85
2022/03/05 04:41:13;;;;;;;24.73;9.17;;;-4.00;99.90;;;;;;5107825;28;20461;-86
2022/03/05 04:43:39;;;;;;;22.60;10.23;;;;;;;;;;5079585;28;20421;-86
2022/03/05 04:46:05;;;;;;;23.87;10.57;;;;;;;;;;5078010;28;20191;-84
2022/03/05 04:48:31;;;;;;;21.20;10.57;;;;;;;;;;5097995;28;20445;-84
2022/03/05 04:50:57;;;;;;;22.13;9.90;;;;;;;;;;5070756;28;20490;-83
2022/03/05 04:53:23;;;;;;;21.80;10.00;;;-4.10;99.90;;;;;;5075031;28;20198;-84
2022/03/05 04:55:49;;;;;;;24.80;11.10;;;-3.80;99.90;;;;;;5081302;28;20442;-81
2022/03/05 04:58:15;;;;;;;18.35;8.73;;;-4.00;99.90;;;;;;5076744;28;20580;-82
2022/03/05 05:00:40;;;;;;;18.30;10.32;;;-3.90;99.90;;;;;;5079675;28;20172;-81
2022/03/05 05:03:06;;;;;;;17.10;8.73;;;-4.10;99.90;;;;;;5084866;28;20647;-85
2022/03/05 05:05:31;;;;;;;25.70;9.93;;;-4.20;99.90;;;;;;5087878;28;20187;-83
2022/03/05 05:07:57;;;;;;;19.60;8.67;;;-4.20;99.90;;;;;;5099006;28;20172;-83
2022/03/05 05:10:23;;;;;;;20.30;8.20;;;-4.20;99.90;;;;;;5099141;28;20176;-84
2022/03/05 05:12:48;;;;;;;21.10;10.20;;;-4.10;99.90;;;;;;5103939;28;20171;-82
2022/03/05 05:15:14;;;;;;;22.97;10.47;;;-4.10;99.90;;;;;;5092290;28;20199;-82
2022/03/05 05:17:40;;;;;;;25.40;10.70;;;;;;;;;;5100296;28;20187;-83
2022/03/05 05:20:07;;;;;;;20.50;11.00;;;-4.20;99.90;;;;;;5094674;28;20215;-84
2022/03/05 05:22:33;;;;;;;20.13;10.20;;;;;;;;;;5098308;28;20465;-84
2022/03/05 05:24:59;;;;;;;23.83;10.75;;;-4.20;99.90;;;;;;5081541;28;20196;-84
2022/03/05 05:27:25;;;;;;;20.55;8.85;;;-4.30;99.90;;;;;;5089917;28;20318;-85
2022/03/05 05:29:51;;;;;;;21.87;10.20;;;-4.30;99.90;;;;;;5074201;28;20267;-86
2022/03/05 05:32:16;;;;;;;20.37;9.57;;;-4.40;99.90;;;;;;5098907;28;20179;-85
2022/03/05 05:34:43;;;;;;;20.13;8.40;;;-4.40;99.90;;;;;;5082259;28;20454;-86
2022/03/05 05:37:08;;;;;;;21.50;10.20;;;-4.30;99.90;;;;;;5087438;28;20430;-84
2022/03/05 05:39:34;;;;;;;23.50;10.60;;;-4.10;99.90;;;;;;5082618;28;20261;-81
2022/03/05 05:41:59;;;;;;;27.93;10.13;;;-4.40;99.90;;;;;;5078089;28;20174;-84
2022/03/05 05:44:25;;;;;;;23.07;10.53;;;-4.40;99.90;;;;;;5075568;28;20298;-86
2022/03/05 05:46:51;;;;;;;17.53;8.10;;;-4.40;99.90;;;;;;5092910;28;20188;-84
2022/03/05 05:49:16;;;;;;;17.63;10.17;;;-4.50;99.90;;;;;;5077586;28;20245;-82
2022/03/05 05:51:42;;;;;;;19.77;9.67;;;-4.40;99.90;;;;;;5069233;28;20184;-83
2022/03/05 05:54:08;;;;;;;18.57;8.60;;;-4.40;99.90;;;;;;5078842;28;20710;-82
2022/03/05 05:56:34;;;;;;;19.30;10.07;;;-4.40;99.90;;;;;;5082731;28;20164;-83
2022/03/05 05:59:00;;;;;;;21.58;11.27;;;-4.40;99.90;;;;;;5095275;28;20794;-84
2022/03/05 06:01:26;;;;;;;21.13;9.68;;;-4.10;99.90;;;;;;5086293;28;20171;-86
2022/03/05 06:03:52;;;;;;;20.87;9.73;;;;;;;;;;5092999;28;20171;-86
2022/03/05 06:06:19;;;;;;;29.55;11.40;;;-4.40;99.90;;;;;;5081661;28;20804;-86
2022/03/05 06:08:44;;;;;;;20.20;9.73;;;-4.30;99.90;;;;;;5073374;28;20248;-84
2022/03/05 06:11:10;;;;;;;24.80;9.63;;;-4.30;99.90;;;;;;5074102;28;20187;-84
2022/03/05 06:13:36;;;;;;;22.20;10.17;;;-4.20;99.90;;;;;;5091147;28;20259;-85
2022/03/05 06:16:01;;;;;;;27.20;12.93;;;-4.10;99.90;;;;;;5080853;28;20435;-84
2022/03/05 06:18:27;;;;;;;23.07;12.00;;;-4.00;99.90;;;;;;5079645;28;20180;-82
2022/03/05 06:20:53;;;;;;;22.17;11.10;;;-3.90;99.90;;;;;;5086068;28;20211;-84
2022/03/05 06:23:18;;;;;;;30.10;11.97;;;-3.90;99.90;;;;;;5084868;28;20267;-85
2022/03/05 06:25:44;;;;;;;23.30;11.33;;;-3.80;99.90;;;;;;5100372;28;20248;-83
2022/03/05 06:28:10;;;;;;;25.40;11.85;;;-3.70;99.90;;;;;;5101226;28;20889;-84
2022/03/05 06:30:36;;;;;;;25.27;11.53;;;-3.60;99.90;;;;;;5082788;28;20183;-86
2022/03/05 06:33:02;;;;;;;24.50;12.10;;;-3.10;99.90;;;;;;5081631;28;20430;-86
2022/03/05 06:35:27;;;;;;;24.87;11.40;;;-1.80;99.90;;;;;;5080113;28;20290;-86
2022/03/05 06:37:53;;;;;;;21.63;10.97;;;-0.60;99.90;;;;;;5077216;28;20421;-85
2022/03/05 06:40:18;;;;;;;19.43;10.27;;;0.70;99.90;;;;;;5093603;28;20167;-85
2022/03/05 06:42:47;;;;;;;22.57;9.80;;;2.10;99.90;;;;;;5075579;28;20226;-85
2022/03/05 06:45:13;;;;;;;15.43;8.73;;;3.30;99.90;;;;;;5080055;28;20219;-87
2022/03/05 06:47:39;;;;;;;16.67;9.55;;;4.20;99.90;;;;;;5082877;28;20251;-86
2022/03/05 06:50:07;;;;;;;12.40;7.88;;;5.20;99.90;;;;;;5098903;28;20179;-87
2022/03/05 06:52:32;;;;;;;15.30;7.93;;;5.50;99.90;;;;;;5098948;28;20663;-87
2022/03/05 06:54:58;;;;;;;23.27;11.77;;;6.30;99.90;;;;;;5080366;28;20208;-87
2022/03/05 06:57:25;;;;;;;15.30;8.70;;;7.40;99.90;;;;;;5107234;28;20168;-86
2022/03/05 06:59:50;;;;;;;13.82;7.72;;;8.30;99.90;;;;;;5081310;28;20167;-86
2022/03/05 07:02:16;;;;;;;24.63;11.60;;;8.30;99.90;;;;;;5080791;28;20172;-85
2022/03/05 07:04:42;;;;;;;23.13;11.70;;;9.20;99.90;;;;;;5079784;28;20282;-87
2022/03/05 07:07:07;;;;;;;22.47;12.20;;;10.60;99.90;;;;;;5097404;28;20426;-86
2022/03/05 07:09:34;;;;;;;21.47;11.70;;;11.50;97.50;;;;;;5098649;28;20238;-84
2022/03/05 07:12:00;;;;;;;16.92;10.23;;;12.20;96.10;;;;;;5070365;28;22335;-84
2022/03/05 07:14:26;;;;;;;18.70;11.07;;;13.10;93.80;;;;;;5084907;28;20208;-84
2022/03/05 07:16:52;;;;;;;17.48;11.10;;;13.70;89.60;;;;;;5079838;28;20183;-85
2022/03/05 07:19:17;;;;;;;22.37;11.50;;;14.20;84.70;;;;;;5072975;28;20183;-88
2022/03/05 07:21:43;;;;;;;17.73;12.13;;;13.20;80.30;;;;;;5079972;28;20192;-84
2022/03/05 07:24:08;;;;;;;18.47;10.63;;;14.30;82.10;;;;;;5082616;28;20200;-81
2022/03/05 07:26:35;;;;;;;19.33;10.83;;;14.70;72.90;;;;;;5075908;28;20625;-84
2022/03/05 07:29:00;;;;;;;19.65;11.00;;;13.50;70.50;;;;;;5076849;28;20172;-83
2022/03/05 07:31:26;;;;;;;22.43;11.30;;;13.90;72.60;;;;;;5094912;28;20183;-84
2022/03/05 07:33:52;;;;;;;17.27;11.30;;;14.20;71.50;;;;;;5095120;28;20223;-85
2022/03/05 07:36:19;;;;;;;19.67;11.00;;;15.00;70.50;;;;;;5090032;28;20184;-84
2022/03/05 07:38:45;;;;;;;20.75;11.18;;;15.80;68.10;;;;;;5091591;28;20266;-83
2022/03/05 07:41:11;;;;;;;21.20;12.57;;;16.30;66.00;;;;;;5084166;28;20263;-83
2022/03/05 07:43:38;;;;;;;17.23;11.73;;;17.70;60.20;;;;;;5088839;28;20441;-83
2022/03/05 07:46:04;;;;;;;23.00;12.40;;;17.70;60.70;;;;;;5071456;28;20435;-84
2022/03/05 07:48:30;;;;;;;21.93;12.87;;;18.30;58.80;;;;;;5090621;28;21037;-87
2022/03/05 07:50:58;;;;;;;25.40;14.83;;;18.90;57.50;;;;;;5092547;28;20430;-84
2022/03/05 07:53:24;;;;;;;27.27;15.93;;;18.20;53.80;;;;;;5092660;28;20204;-84
2022/03/05 07:55:49;;;;;;;20.50;12.23;;;17.50;54.00;;;;;;5089165;28;20453;-84
2022/03/05 07:58:15;;;;;;;19.83;12.37;;;17.10;53.40;;;;;;5068686;28;20180;-84
2022/03/05 08:00:40;;;;;;;24.53;14.80;;;16.70;54.50;;;;;;5092836;28;20191;-80
2022/03/05 08:03:06;;;;;;;26.10;16.40;;;17.70;54.60;;;;;;5092964;28;20230;-84
2022/03/05 08:05:32;;;;;;;23.50;13.50;;;18.90;53.10;;;;;;5099219;28;20200;-84
2022/03/05 08:07:57;;;;;;;19.20;11.93;;;19.20;51.80;;;;;;5098090;28;20184;-83
2022/03/05 08:10:23;;;;;;;18.87;12.40;;;19.60;50.70;;;;;;5095006;28;20255;-82
2022/03/05 08:12:49;;;;;;;18.33;12.70;;;19.30;50.40;;;;;;5096210;28;20194;-83
2022/03/05 08:15:14;;;;;;;22.03;12.90;;;18.90;50.00;;;;;;5090903;28;20476;-84
2022/03/05 08:17:58;;;;;;;17.63;11.23;;;17.60;50.30;;;;;;5070612;28;20309;-83
2022/03/05 08:20:26;;;;;;;19.70;12.80;;;18.40;51.70;;;;;;5066560;28;20184;-87
2022/03/05 08:22:52;;;;;;;21.77;14.10;;;19.10;49.50;;;;;;5079700;28;20430;-82
2022/03/05 08:25:19;;;;;;;21.80;14.20;;;18.60;48.20;;;;;;5087020;28;20894;-82
2022/03/05 08:27:44;;;;;;;22.97;14.03;;;16.70;49.30;;;;;;5077904;28;21017;-85
2022/03/05 08:30:10;;;;;;;19.83;13.23;;;17.70;51.60;;;;;;5073495;28;20423;-82
2022/03/05 08:32:36;;;;;;;22.40;14.90;;;19.20;50.90;;;;;;5093753;28;20185;-84
2022/03/05 08:35:03;;;;;;;21.47;14.50;;;18.50;48.00;;;;;;5088905;28;20470;-81
2022/03/05 08:37:29;;;;;;;22.00;13.97;;;17.50;48.10;;;;;;5091214;28;20224;-86
2022/03/05 08:39:54;;;;;;;22.80;14.13;;;16.50;49.00;;;;;;5074419;28;20442;-84
2022/03/05 08:42:20;;;;;;;24.77;13.33;;;17.30;50.50;;;;;;5087714;28;20179;-79
2022/03/05 08:44:46;;;;;;;22.87;14.40;;;17.90;50.70;;;;;;5090106;28;20243;-83
2022/03/05 08:47:11;;;;;;;22.93;13.90;;;18.90;49.40;;;;;;5090677;28;20890;-84
2022/03/05 08:49:37;;;;;;;30.67;15.50;;;;;;;;;;5070519;28;20551;-85
2022/03/05 08:52:03;;;;;;;17.40;12.50;;;19.80;48.40;;;;;;5082821;28;21240;-84
2022/03/05 08:54:29;;;;;;;19.73;13.43;;;20.10;46.80;;;;;;5088007;28;20470;-85
2022/03/05 08:56:55;;;;;;;23.30;14.20;;;20.20;47.40;;;;;;5060788;28;21066;-81
2022/03/05 08:59:20;;;;;;;25.23;14.43;;;20.00;47.00;;;;;;5082043;28;20267;-80
2022/03/05 09:01:46;;;;;;;19.87;13.93;;;20.30;45.90;;;;;;5094710;28;20579;-82
2022/03/05 09:04:12;;;;;;;19.97;13.40;;;20.10;45.40;;;;;;5089581;28;20196;-83
2022/03/05 09:06:38;;;;;;;22.53;13.93;;;20.00;45.70;;;;;;5079802;28;20875;-81
2022/03/05 09:09:04;;;;;;;21.00;12.90;;;19.60;46.20;;;;;;5080961;28;20524;-84
2022/03/05 09:11:30;;;;;;;22.60;14.47;;;20.00;46.60;;;;;;5093661;28;20199;-82
2022/03/05 09:13:56;;;;;;;26.13;14.20;;;19.80;45.90;;;;;;5078225;28;20835;-81
2022/03/05 09:16:22;;;;;;;20.87;13.93;;;19.70;46.30;;;;;;5078834;28;20417;-83
2022/03/05 09:18:47;;;;;;;20.90;13.63;;;20.10;46.00;;;;;;5092237;28;20222;-79
2022/03/05 09:21:13;;;;;;;22.90;13.50;;;19.80;45.30;;;;;;5077680;28;20422;-86
2022/03/05 09:23:39;;;;;;;23.97;15.50;;;18.10;45.90;;;;;;5075938;28;20200;-83
2022/03/05 09:26:04;;;;;;;22.47;13.70;;;18.10;46.40;;;;;;5081099;28;20187;-83
2022/03/05 09:28:30;;;;;;;21.87;13.77;;;17.80;46.80;;;;;;5095580;28;20187;-83
2022/03/05 09:30:58;;;;;;;24.03;14.30;;;17.80;47.20;;;;;;5095249;28;20180;-83
2022/03/05 09:33:25;;;;;;;18.07;12.40;;;18.10;47.60;;;;;;5081040;28;20454;-83
2022/03/05 09:35:51;;;;;;;25.50;13.40;;;18.20;46.00;;;;;;5075808;28;21034;-84
2022/03/05 09:38:18;;;;;;;21.90;13.10;;;18.30;46.40;;;;;;5080641;28;20416;-85
2022/03/05 09:40:44;;;;;;;19.70;12.63;;;18.50;45.60;;;;;;5075539;28;20441;-82
2022/03/05 09:43:09;;;;;;;21.63;13.80;;;17.70;45.90;;;;;;5090534;28;20774;-86
2022/03/05 09:45:36;;;;;;;21.23;13.83;;;17.70;46.50;;;;;;5088735;28;20459;-86
2022/03/05 09:48:02;;;;;;;19.43;12.60;;;17.90;45.20;;;;;;5073310;28;20183;-82
2022/03/05 09:50:29;;;;;;;24.10;14.00;;;17.90;45.60;;;;;;5076010;28;20937;-86
2022/03/05 09:52:59;;;;;;;21.43;11.93;;;17.40;46.10;;;;;;5078874;28;20187;-82
2022/03/05 09:55:25;;;;;;;23.13;12.50;;;17.20;46.10;;;;;;5080001;28;20457;-83
2022/03/05 09:57:51;;;;;;;19.60;12.60;;;16.80;46.60;;;;;;5094671;28;20441;-83
2022/03/05 10:00:17;;;;;;;19.83;12.50;;;16.10;47.20;;;;;;5066633;28;20500;-82
2022/03/05 10:02:47;;;;;;;24.37;13.80;;;15.60;47.40;;;;;;5071774;28;20190;-81
2022/03/05 10:05:18;;;;;;;24.07;13.30;;;14.90;48.80;;;;;;5075498;28;20448;-81
2022/03/05 10:07:58;;;;;;;21.40;12.50;;;15.20;48.40;;;;;;5067874;28;20402;-83
2022/03/05 10:10:40;;;;;;;21.23;12.40;;;15.30;49.00;;;;;;5094889;28;20451;-79
2022/03/05 10:13:33;;;;;;;23.20;13.57;;;14.70;48.90;;;;;;5089977;28;20439;-82
2022/03/05 10:16:05;;;;;;;24.08;13.02;;;11.60;50.40;;;;;;5073305;28;20223;-82
2022/03/05 10:18:31;;;;;;;22.20;11.80;;;10.10;53.70;;;;;;5075636;28;20175;-84
2022/03/05 10:20:59;;;;;;;20.92;12.00;;;9.10;56.60;;;;;;5094437;28;20180;-80
2022/03/05 10:23:25;;;;;;;21.45;12.60;;;8.70;57.60;;;;;;5087333;28;20194;-81
2022/03/05 10:25:51;;;;;;;19.70;11.60;;;8.50;60.90;;;;;;5070451;28;20212;-83
2022/03/05 10:28:24;;;;;;;13.00;8.32;;;8.30;60.90;;;;;;5074554;28;20463;-81
2022/03/05 10:30:52;;;;;;;14.18;8.00;;;8.10;54.00;;;;;;5065667;28;20176;-80
2022/03/05 10:33:29;;;;;;;12.80;7.28;;;7.80;53.70;;;;;;5075480;28;20180;-80
2022/03/05 10:36:01;;;;;;;8.48;5.00;;;7.60;52.30;;;;;;5095102;28;20253;-82
2022/03/05 10:38:47;;;;;;;10.95;6.35;;;7.30;51.50;;;;;;5091258;28;20318;-80
2022/03/05 10:41:17;;;;;;;9.85;6.30;;;7.20;52.10;;;;;;5100466;28;20293;-81
2022/03/05 10:44:06;;;;;;;11.40;7.00;;;7.20;52.60;;;;;;5092393;28;20179;-84
2022/03/05 10:46:43;;;;;;;8.98;4.93;;;7.20;52.80;;;;;;5070367;28;20249;-86
2022/03/05 10:49:15;;;;;;;8.80;4.00;;;7.10;50.20;;;;;;5089360;28;20179;-85
2022/03/05 10:51:46;;;;;;;7.13;4.82;;;6.80;50.10;;;;;;5091883;28;20201;-80
2022/03/05 10:54:12;;;;;;;8.63;5.35;;;6.60;50.60;;;;;;5064878;28;20253;-82
2022/03/05 10:56:37;;;;;;;12.27;6.90;;;6.40;50.80;;;;;;5094987;28;20207;-83
2022/03/05 10:59:11;;;;;;;9.47;4.40;;;6.60;53.20;;;;;;5090914;28;20607;-81
2022/03/05 11:01:39;;;;;;;8.27;5.50;;;6.70;51.70;;;;;;5065140;28;20185;-81
2022/03/05 11:04:06;;;;;;;8.20;4.53;;;6.90;51.60;;;;;;5080364;28;20210;-82
2022/03/05 11:06:37;;;;;;;11.60;4.38;;;7.10;51.60;;;;;;5073459;28;20186;-82
2022/03/05 11:09:03;;;;;;;8.98;4.75;;;7.00;50.50;;;;;;5078400;28;20224;-82
2022/03/05 11:11:30;;;;;;;17.73;6.63;;;6.90;50.70;;;;;;5091148;28;20183;-83
2022/03/05 11:13:56;;;;;;;7.10;4.25;;;7.10;52.10;;;;;;5097553;28;20215;-82
2022/03/05 11:16:22;;;;;;;11.07;6.03;;;7.20;51.80;;;;;;5090142;28;20627;-82
2022/03/05 11:18:48;;;;;;;7.93;5.23;;;7.20;51.20;;;;;;5095760;28;20249;-82
2022/03/05 11:21:13;;;;;;;10.03;5.20;;;7.40;52.80;;;;;;5094315;28;20432;-83
2022/03/05 11:23:41;;;;;;;11.47;7.60;;;7.70;50.40;;;;;;5074668;28;20172;-81
2022/03/05 11:26:08;;;;;;;8.68;4.65;;;7.60;50.80;;;;;;5087938;28;20180;-80
2022/03/05 11:28:36;;;;;;;6.80;3.90;;;7.50;50.60;;;;;;5088514;28;20179;-80
2022/03/05 11:31:07;;;;;;;11.77;5.97;;;7.40;50.60;;;;;;5069613;28;20229;-83
2022/03/05 11:33:39;;;;;;;11.55;6.07;;;7.30;51.40;;;;;;5065780;28;20311;-81
2022/03/05 11:36:22;;;;;;;9.45;6.43;;;7.50;52.00;;;;;;5065289;28;20187;-81
2022/03/05 11:38:47;;;;;;;8.82;5.88;;;7.70;52.20;;;;;;5065237;28;20179;-82
2022/03/05 11:41:19;;;;;;;12.13;6.33;;;7.90;51.00;;;;;;5065415;28;20177;-81
2022/03/05 11:43:49;;;;;;;10.27;5.25;;;8.10;51.70;;;;;;5060127;28;20180;-83
2022/03/05 11:46:27;;;;;;;14.10;7.63;;;8.10;52.70;;;;;;5067536;28;20184;-86
2022/03/05 11:49:08;;;;;;;14.88;7.45;;;8.10;51.60;;;;;;5067797;28;20218;-80
2022/03/05 11:51:51;;;;;;;14.57;7.15;;;8.50;51.30;;;;;;5090330;28;20184;-83
2022/03/05 11:54:19;;;;;;;17.50;7.95;;;8.70;50.50;;;;;;5080583;28;20302;-84
2022/03/05 11:57:08;;;;;;;12.10;6.88;;;8.90;50.90;;;;;;5081682;28;20187;-82
2022/03/05 11:59:36;;;;;;;14.57;8.45;;;9.20;50.30;;;;;;5070365;28;20187;-82
2022/03/05 12:02:03;;;;;;;17.60;8.98;;;9.20;52.20;;;;;;5068571;28;20257;-81
2022/03/05 12:04:31;;;;;;;9.70;5.00;;;9.40;52.10;;;;;;5086127;28;20188;-82
2022/03/05 12:07:12;;;;;;;12.60;7.03;;;9.40;50.20;;;;;;5074587;28;20700;-86
2022/03/05 12:09:41;;;;;;;15.82;7.95;;;9.40;50.50;;;;;;5081765;28;20177;-82
2022/03/05 12:12:16;;;;;;;16.60;9.00;;;8.80;50.40;;;;;;5080864;28;20212;-83
2022/03/05 12:15:03;;;;;;;14.95;7.47;;;8.60;52.00;;;;;;5064779;28;20214;-83
2022/03/05 12:17:54;;;;;;;13.23;8.18;;;8.40;50.20;;;;;;5087097;28;20175;-81
2022/03/05 12:20:34;;;;;;;17.83;8.68;;;7.80;50.20;;;;;;5074622;28;20221;-82
2022/03/05 12:23:05;;;;;;;12.95;7.47;;;7.50;51.10;;;;;;5086749;28;20176;-79
2022/03/05 12:25:34;;;;;;;13.50;8.65;;;7.20;51.10;;;;;;5082790;28;20216;-83
2022/03/05 12:28:00;;;;;;;15.73;8.55;;;7.10;51.70;;;;;;5060992;28;20184;-83
2022/03/05 12:30:31;;;;;;;13.50;7.32;;;7.20;52.50;;;;;;5065894;28;20180;-79
2022/03/05 12:33:24;;;;;;;11.48;6.30;;;7.60;53.60;;;;;;5084629;28;20172;-82
2022/03/05 12:35:49;;;;;;;11.52;7.38;;;8.00;52.80;;;;;;5062193;28;20265;-81
2022/03/05 12:38:17;;;;;;;11.07;7.30;;;8.40;52.10;;;;;;5082336;28;20265;-79
2022/03/05 12:40:43;;;;;;;11.50;6.55;;;8.30;50.30;;;;;;5067739;28;20617;-81
2022/03/05 12:43:09;;;;;;;9.10;6.00;;;8.30;51.20;;;;;;5083319;28;20782;-81
2022/03/05 12:45:38;;;;;;;12.95;7.00;;;8.30;50.70;;;;;;5070904;28;20949;-82
2022/03/05 12:48:15;;;;;;;9.45;6.78;;;8.40;50.70;;;;;;5083028;28;20180;-84